Date,TemperatureHighF,TemperatureAvgF,TemperatureLowF,DewpointHighF,DewpointAvgF,DewpointLowF,HumidityHigh,HumidityAvg,HumidityLow,PressureMaxIn,PressureMinIn,WindSpeedMaxMPH,WindSpeedAvgMPH,GustSpeedMaxMPH,PrecipitationSumIn
2013-5-1,81,65,45,26,19,8,38,19,9,29.93,29.70,23,3,23,0.00
2013-5-2,79,64,41,25,20,13,40,20,12,30.06,29.93,20,4,20,0.00
2013-5-3,77,66,46,23,16,10,36,16,8,30.04,29.79,18,3,18,0.00
2013-5-4,82,73,46,32,24,14,31,17,10,29.78,29.63,25,4,25,0.00
2013-5-5,80,72,58,34,29,22,35,21,13,29.81,29.67,30,6,30,0.00
2013-5-6,76,67,53,46,36,27,73,34,21,29.87,29.77,25,4,39,0.01
2013-5-7,75,66,44,39,32,25,57,29,17,29.91,29.78,28,4,28,0.00
2013-5-8,74,64,39,36,30,20,66,30,14,29.94,29.83,32,4,32,0.00
2013-5-9,75,65,44,37,29,22,68,28,17,29.94,29.80,21,3,21,0.00
2013-5-10,74,63,39,38,32,22,59,33,17,30.04,29.89,21,3,21,0.00
2013-5-11,76,66,50,39,36,29,48,34,23,30.04,29.95,20,4,20,0.00
2013-5-12,79,66,46,38,32,24,60,31,15,30.07,29.89,25,4,25,0.00
2013-5-13,83,75,58,35,27,14,36,18,9,29.98,29.83,20,4,20,0.00
2013-5-14,86,76,53,38,34,29,43,23,15,29.89,29.73,24,2,24,0.00
2013-5-15,87,77,52,36,33,30,44,21,15,29.88,29.72,26,6,26,0.00
2013-5-16,88,77,51,32,25,18,39,16,9,29.83,29.66,26,2,26,0.00
2013-5-17,86,76,54,32,24,13,37,16,8,29.79,29.68,26,4,26,0.00
2013-5-18,83,73,51,35,25,7,42,19,7,29.82,29.71,29,5,29,0.00
2013-5-19,82,66,49,34,29,25,55,28,13,29.83,29.70,15,3,25,0.00
2013-5-20,82,73,50,38,28,21,49,20,12,29.81,29.69,31,7,31,0.00
2013-5-21,86,67,41,25,17,8,39,17,6,29.84,29.69,18,2,19,0.00
2013-5-22,88,73,52,27,20,13,26,15,8,29.75,29.59,27,2,27,0.00
2013-5-23,90,73,47,35,22,13,37,17,6,29.75,29.64,27,3,27,0.00
2013-5-24,90,74,49,42,25,11,61,21,6,29.81,29.71,25,2,25,0.00
2013-5-25,88,78,53,36,23,14,41,14,7,29.84,29.75,26,6,26,0.00
2013-5-26,87,76,49,33,17,7,30,12,5,29.85,29.75,28,5,28,0.00
2013-5-27,89,71,48,26,15,2,28,13,5,29.81,29.62,22,2,22,0.00
2013-5-28,86,71,52,32,21,11,31,17,7,29.69,29.51,25,4,25,0.00
2013-5-29,83,71,49,35,30,24,46,23,12,29.66,29.56,24,4,24,0.00
2013-5-30,88,73,55,52,40,30,72,35,16,29.74,29.63,28,4,28,0.00
2013-5-31,77,66,57,55,47,32,77,51,35,29.76,29.71,10,0,10,0.00